SCCI/PUQ METAR and TAF weather

Enter ICAO airport designator
Station Type Date Time Source
SCCI METAR 2022/08/13 12:00 UTC NOAA

SCCI 131200Z 02004KT 340V050 9999 FEW030 SCT100 BKN200 M02/M04 Q0989 NOSIG


Station Type Date Time Source
SCCI Decoded METAR 2022/08/13 12:00 UTC NOAA

Punta Arenas, Chile (SCCI) 53-00S 070-51W 33M
Aug 13, 2022 - 08:00 AM EDT / 2022.08.13 1200 UTC
Wind: from the NNE (020 degrees) at 5 MPH (4 KT) (direction variable):0
Visibility: greater than 7 mile(s):0
Sky conditions: mostly cloudy
Temperature: 28 F (-2 C)
Windchill: 23 F (-5 C):1
Dew Point: 24 F (-4 C)
Relative Humidity: 86%
Pressure (altimeter): 29.21 in. Hg (0989 hPa)
ob: SCCI 131200Z 02004KT 340V050 9999 FEW030 SCT100 BKN200 M02/M04 Q0989 NOSIG
cycle: 12

Station Type Date Time Source
SCCI TAF 2022/08/13 12:03 UTC NOAA

TAF SCCI 131053Z 1312/1412 04015KT 9999 FEW035 TNM03/1312Z TX04/1315Z
TEMPO 1315/1320 04020G30KT
BECMG 1318/1320 9000 FEW010 BKN035
BECMG 1322/1400 7000 RA RASN SCT010 BKN020 PROB40
TEMPO 1400/1406 3000 RA DZ BR OVC008
BECMG 1406/1408 26015KT 9000 SCT030

Example: see airport list